createdAt,value
2018-07-23T00:00:11.481Z,53.30
2018-07-23T00:02:39.785Z,52.70
2018-07-23T00:05:08.041Z,52.90
2018-07-23T00:07:36.488Z,53.80
2018-07-23T00:10:04.785Z,54.20
2018-07-23T00:12:33.154Z,53.00
2018-07-23T00:15:01.480Z,52.40
2018-07-23T00:17:29.714Z,52.50
2018-07-23T00:19:58.038Z,53.10
2018-07-23T00:22:26.342Z,52.80
2018-07-23T00:24:55.435Z,53.20
2018-07-23T00:27:23.778Z,52.70
2018-07-23T00:29:52.029Z,53.00
2018-07-23T00:32:20.261Z,53.40
2018-07-23T00:34:48.570Z,53.90
2018-07-23T00:37:16.877Z,53.90
2018-07-23T00:39:45.113Z,53.70
2018-07-23T00:42:13.349Z,53.20
2018-07-23T00:44:41.664Z,53.30
2018-07-23T00:47:10.096Z,52.60
2018-07-23T00:49:38.377Z,53.10
2018-07-23T00:52:07.805Z,53.40
2018-07-23T00:54:36.002Z,53.10
2018-07-23T00:57:04.258Z,53.50
2018-07-23T00:59:32.693Z,53.70
2018-07-23T01:02:01.036Z,53.70
2018-07-23T01:04:29.278Z,53.30
2018-07-23T01:06:57.583Z,52.70
2018-07-23T01:09:25.906Z,53.00
2018-07-23T01:11:54.138Z,54.20
2018-07-23T01:14:22.358Z,54.60
2018-07-23T01:19:19.018Z,53.70
2018-07-23T01:21:47.451Z,52.80
2018-07-23T01:24:15.738Z,52.10
2018-07-23T01:26:43.958Z,53.40
2018-07-23T01:29:12.167Z,53.10
2018-07-23T01:31:41.070Z,52.30
2018-07-23T01:34:09.336Z,52.90
2018-07-23T01:36:37.691Z,52.80
2018-07-23T01:39:07.806Z,53.10
2018-07-23T01:41:36.077Z,53.10
2018-07-23T01:44:04.299Z,53.70
2018-07-23T01:46:32.722Z,53.90
2018-07-23T01:49:01.690Z,54.20
2018-07-23T01:51:29.962Z,54.00
2018-07-23T01:53:58.178Z,53.50
2018-07-23T01:56:26.414Z,53.80
2018-07-23T01:58:55.642Z,54.10
2018-07-23T02:01:24.665Z,52.90
2018-07-23T02:03:52.888Z,52.50
2018-07-23T02:06:21.114Z,52.60
2018-07-23T02:08:49.372Z,52.50
2018-07-23T02:11:17.846Z,51.90
2018-07-23T02:13:46.140Z,53.00
2018-07-23T02:16:14.330Z,53.80
2018-07-23T02:18:42.587Z,53.90
2018-07-23T02:21:11.170Z,54.20
2018-07-23T02:23:39.440Z,54.20
2018-07-23T02:26:07.670Z,53.90
2018-07-23T02:28:35.910Z,53.10
2018-07-23T02:31:04.151Z,53.40
2018-07-23T02:33:32.501Z,53.90
2018-07-23T02:36:00.780Z,53.70
2018-07-23T02:38:29.032Z,53.70
2018-07-23T02:40:57.230Z,53.70
2018-07-23T02:43:25.655Z,54.30
2018-07-23T02:45:53.853Z,55.00
2018-07-23T02:48:22.050Z,55.10
2018-07-23T02:50:50.309Z,53.90
2018-07-23T02:53:18.505Z,53.90
2018-07-23T02:55:46.760Z,53.10
2018-07-23T02:58:14.962Z,53.10
2018-07-23T03:00:43.175Z,52.70
2018-07-23T03:03:11.397Z,52.90
2018-07-23T03:05:40.496Z,53.10
2018-07-23T03:08:09.278Z,53.50
2018-07-23T03:10:37.489Z,53.40
2018-07-23T03:13:05.686Z,54.10
2018-07-23T03:15:33.921Z,54.40
2018-07-23T03:18:02.906Z,53.90
2018-07-23T03:22:59.118Z,54.00
2018-07-23T03:25:27.325Z,53.60
2018-07-23T03:27:56.070Z,53.00
2018-07-23T03:30:24.389Z,52.90
2018-07-23T03:32:52.609Z,53.70
2018-07-23T03:35:20.825Z,54.10
2018-07-23T03:37:49.081Z,53.30
2018-07-23T03:42:45.453Z,52.70
2018-07-23T03:45:13.677Z,53.50
2018-07-23T03:47:41.996Z,52.70
2018-07-23T03:50:10.321Z,52.90
2018-07-23T03:52:38.615Z,52.50
2018-07-23T03:55:06.838Z,53.20
2018-07-23T03:57:35.046Z,52.40
2018-07-23T04:00:03.383Z,53.20
2018-07-23T04:02:31.806Z,53.00
2018-07-23T04:05:00.044Z,53.20
2018-07-23T04:07:28.371Z,52.90
2018-07-23T04:09:56.615Z,53.90
2018-07-23T04:12:24.886Z,53.10
2018-07-23T04:14:53.109Z,53.10
2018-07-23T04:17:21.359Z,53.80
2018-07-23T04:19:49.584Z,53.40
2018-07-23T04:22:17.957Z,53.10
2018-07-23T04:24:46.837Z,53.00
2018-07-23T04:27:15.086Z,52.90
2018-07-23T04:29:43.291Z,52.20
2018-07-23T04:32:11.517Z,52.60
2018-07-23T04:34:40.217Z,52.90
2018-07-23T04:37:08.846Z,53.40
2018-07-23T04:39:37.064Z,53.10
2018-07-23T04:42:05.238Z,53.30
2018-07-23T04:44:33.511Z,52.80
2018-07-23T04:47:02.387Z,53.00
2018-07-23T04:49:30.590Z,53.10
2018-07-23T04:51:58.769Z,52.00
2018-07-23T04:54:26.999Z,51.90
2018-07-23T04:56:55.223Z,52.10
2018-07-23T04:59:23.405Z,51.40
2018-07-23T05:01:51.577Z,51.80
2018-07-23T05:04:19.798Z,51.90
2018-07-23T05:06:48.074Z,51.40
2018-07-23T05:09:16.335Z,52.60
2018-07-23T05:11:44.549Z,52.60
2018-07-23T05:14:12.904Z,51.50
2018-07-23T05:16:41.586Z,52.50
2018-07-23T05:19:09.800Z,51.50
2018-07-23T05:21:38.019Z,51.50
2018-07-23T05:24:06.246Z,51.60
2018-07-23T05:26:34.476Z,51.70
2018-07-23T05:29:02.738Z,50.50
2018-07-23T05:31:30.987Z,50.20
2018-07-23T05:33:59.455Z,50.20
2018-07-23T05:36:27.638Z,50.20
2018-07-23T05:38:55.941Z,50.30
2018-07-23T05:41:24.185Z,50.30
2018-07-23T05:43:52.357Z,50.40
2018-07-23T05:46:20.949Z,50.50
2018-07-23T05:48:49.353Z,50.30
2018-07-23T05:51:17.676Z,50.20
2018-07-23T05:53:45.873Z,49.90
2018-07-23T05:56:14.162Z,50.30
2018-07-23T05:58:42.426Z,49.90
2018-07-23T06:01:10.758Z,50.10
2018-07-23T06:03:39.103Z,50.00
2018-07-23T06:06:07.293Z,49.20
2018-07-23T06:08:35.577Z,48.80
2018-07-23T06:11:03.777Z,48.50
2018-07-23T06:13:32.162Z,48.10
2018-07-23T06:16:00.329Z,49.00
2018-07-23T06:18:28.627Z,48.20
2018-07-23T06:23:24.932Z,48.60
2018-07-23T06:25:53.270Z,47.60
2018-07-23T06:28:21.651Z,46.90
2018-07-23T06:30:49.869Z,46.80
2018-07-23T06:33:18.247Z,46.50
2018-07-23T06:35:46.627Z,46.10
2018-07-23T06:38:14.828Z,46.10
2018-07-23T06:40:43.031Z,46.20
2018-07-23T06:43:11.289Z,46.30
2018-07-23T06:45:39.670Z,46.00
2018-07-23T06:48:07.873Z,46.10
2018-07-23T06:50:36.074Z,45.90
2018-07-23T06:53:04.314Z,45.60
2018-07-23T06:55:32.969Z,45.50
2018-07-23T06:58:01.844Z,45.30
2018-07-23T07:00:30.049Z,45.30
2018-07-23T07:02:58.244Z,45.20
2018-07-23T07:05:26.468Z,45.10
2018-07-23T07:07:54.715Z,44.80
2018-07-23T07:10:22.949Z,44.40
2018-07-23T07:12:51.166Z,44.20
2018-07-23T07:15:19.385Z,43.00
2018-07-23T07:17:47.731Z,42.90
2018-07-23T07:20:15.965Z,42.10
2018-07-23T07:22:44.222Z,41.50
2018-07-23T07:25:12.441Z,39.20
2018-07-23T07:27:41.109Z,39.60
2018-07-23T07:32:37.837Z,36.70
2018-07-23T07:35:06.233Z,36.50
2018-07-23T07:37:39.793Z,36.10
2018-07-23T07:40:08.012Z,35.30
2018-07-23T07:45:04.562Z,34.80
2018-07-23T07:47:32.858Z,34.60
2018-07-23T07:50:01.349Z,33.20
2018-07-23T07:52:29.533Z,32.20
2018-07-23T07:54:57.777Z,31.50
2018-07-23T07:57:26.146Z,31.00
2018-07-23T07:59:54.365Z,30.00
2018-07-23T08:02:22.663Z,28.10
2018-07-23T08:04:50.873Z,27.80
2018-07-23T08:07:19.080Z,25.70
2018-07-23T08:09:47.459Z,26.00
2018-07-23T08:12:15.658Z,24.10
2018-07-23T08:14:44.181Z,23.90
2018-07-23T08:17:12.382Z,23.90
2018-07-23T08:19:41.285Z,23.00
2018-07-23T08:24:37.590Z,22.50
2018-07-23T08:27:06.002Z,22.10
2018-07-23T08:29:34.445Z,22.00
2018-07-23T08:32:03.453Z,22.00
2018-07-23T08:34:31.738Z,22.00
2018-07-23T08:36:59.990Z,21.30
2018-07-23T08:39:28.203Z,21.40
2018-07-23T08:41:56.428Z,21.20
2018-07-23T08:44:24.710Z,22.40
2018-07-23T08:46:52.927Z,22.50
2018-07-23T08:49:21.425Z,22.80
2018-07-23T08:54:17.646Z,21.70
2018-07-23T08:56:45.865Z,22.10
2018-07-23T08:59:14.150Z,21.50
2018-07-23T09:01:42.389Z,21.50
2018-07-23T09:04:17.014Z,22.10
2018-07-23T09:06:45.226Z,22.20
2018-07-23T09:09:13.481Z,22.70
2018-07-23T09:11:41.769Z,22.10
2018-07-23T09:14:10.093Z,21.60
2018-07-23T09:16:38.322Z,22.00
2018-07-23T09:19:06.556Z,21.70
2018-07-23T09:21:34.821Z,21.10
2018-07-23T09:24:03.118Z,20.90
2018-07-23T09:26:31.961Z,21.00
2018-07-23T09:29:00.165Z,20.70
2018-07-23T09:31:28.365Z,19.20
2018-07-23T09:33:56.585Z,17.60
2018-07-23T09:36:24.873Z,18.00
2018-07-23T09:38:53.087Z,17.60
2018-07-23T09:41:21.300Z,17.10
2018-07-23T09:43:49.529Z,17.30
2018-07-23T09:46:17.804Z,16.70
2018-07-23T09:48:46.374Z,16.60
2018-07-23T09:51:14.545Z,16.40
2018-07-23T09:53:42.745Z,16.40
2018-07-23T09:56:11.949Z,16.80
2018-07-23T09:58:40.214Z,15.40
2018-07-23T10:01:11.621Z,15.80
2018-07-23T10:03:40.485Z,15.50
2018-07-23T10:06:08.738Z,15.30
2018-07-23T10:08:36.921Z,15.90
2018-07-23T10:11:05.127Z,15.60
2018-07-23T10:13:33.447Z,15.70
2018-07-23T10:16:01.669Z,15.10
2018-07-23T10:18:29.882Z,15.10
2018-07-23T10:20:58.101Z,14.70
2018-07-23T10:23:26.329Z,15.10
2018-07-23T10:25:54.518Z,14.80
2018-07-23T10:28:22.749Z,15.50
2018-07-23T10:30:50.977Z,14.50
2018-07-23T10:33:19.168Z,14.40
2018-07-23T10:35:48.355Z,15.20
2018-07-23T10:38:16.982Z,15.50
2018-07-23T10:41:10.786Z,16.00
2018-07-23T10:43:39.638Z,16.10
2018-07-23T10:46:08.205Z,15.80
2018-07-23T10:48:36.470Z,17.00
2018-07-23T10:51:04.712Z,17.20
2018-07-23T10:53:32.961Z,17.20
2018-07-23T10:56:01.221Z,16.30
2018-07-23T10:58:29.825Z,16.00
2018-07-23T11:00:58.010Z,15.70
2018-07-23T11:03:26.246Z,15.50
2018-07-23T11:05:54.484Z,14.80
2018-07-23T11:08:22.705Z,14.90
2018-07-23T11:10:50.968Z,14.10
2018-07-23T11:13:19.178Z,14.40
2018-07-23T11:15:47.465Z,14.10
2018-07-23T11:18:16.009Z,14.10
2018-07-23T11:20:44.231Z,13.40
2018-07-23T11:23:12.451Z,14.10
2018-07-23T11:25:41.856Z,13.50
2018-07-23T11:28:10.113Z,13.50
2018-07-23T11:30:38.374Z,13.70
2018-07-23T11:33:06.581Z,13.20
2018-07-23T11:35:35.160Z,13.60
2018-07-23T11:38:03.475Z,13.30
2018-07-23T11:40:32.979Z,13.90
2018-07-23T11:43:01.238Z,14.50
2018-07-23T11:45:29.462Z,14.30
2018-07-23T11:47:57.673Z,14.30
2018-07-23T11:50:25.941Z,13.80
2018-07-23T11:52:54.141Z,13.30
2018-07-23T11:55:22.357Z,13.40
2018-07-23T11:57:50.605Z,13.40
2018-07-23T12:00:18.865Z,14.00
2018-07-23T12:02:47.175Z,13.20
2018-07-23T12:05:15.448Z,13.80
2018-07-23T12:07:43.633Z,13.40
2018-07-23T12:10:12.468Z,13.10
2018-07-23T12:12:41.303Z,13.40
2018-07-23T12:15:10.334Z,13.20
2018-07-23T12:17:38.670Z,12.90
2018-07-23T12:20:06.830Z,13.00
2018-07-23T12:22:35.031Z,13.40
2018-07-23T12:25:04.118Z,13.70
2018-07-23T12:27:32.313Z,13.00
2018-07-23T12:30:00.573Z,13.10
2018-07-23T12:32:28.827Z,12.70
2018-07-23T12:34:56.975Z,13.40
2018-07-23T12:37:26.317Z,13.90
2018-07-23T12:39:54.624Z,13.60
2018-07-23T12:42:22.857Z,13.50
2018-07-23T12:44:51.037Z,13.10
2018-07-23T12:47:19.273Z,13.70
2018-07-23T12:49:47.475Z,13.00
2018-07-23T12:52:15.701Z,12.40
2018-07-23T12:54:43.897Z,13.00
2018-07-23T12:57:12.081Z,13.00
2018-07-23T12:59:40.440Z,13.60
2018-07-23T13:02:08.618Z,14.40
2018-07-23T13:04:36.818Z,15.50
2018-07-23T13:07:05.029Z,16.40
2018-07-23T13:09:33.274Z,17.20
2018-07-23T13:12:02.703Z,17.60
2018-07-23T13:14:30.907Z,18.60
2018-07-23T13:16:59.149Z,19.20
2018-07-23T13:19:27.337Z,19.30
2018-07-23T13:21:56.003Z,19.20
2018-07-23T13:24:24.882Z,18.70
2018-07-23T13:26:53.071Z,19.20
2018-07-23T13:31:49.267Z,19.60
2018-07-23T13:34:17.567Z,20.20
2018-07-23T13:36:45.823Z,20.00
2018-07-23T13:39:14.170Z,21.00
2018-07-23T13:44:11.467Z,21.50
2018-07-23T13:46:39.853Z,21.70
2018-07-23T13:49:08.049Z,22.00
2018-07-23T13:51:39.686Z,22.70
2018-07-23T13:54:07.885Z,22.70
2018-07-23T13:56:36.214Z,22.10
2018-07-23T13:59:05.113Z,23.20
2018-07-23T14:01:33.301Z,22.50
2018-07-23T14:04:11.954Z,22.10
2018-07-23T14:06:40.701Z,22.30
2018-07-23T14:09:10.611Z,22.20
2018-07-23T14:11:40.076Z,22.30
2018-07-23T14:14:08.265Z,21.80
2018-07-23T14:16:36.578Z,21.50
2018-07-23T14:19:05.018Z,20.50
2018-07-23T14:21:33.381Z,19.70
2018-07-23T14:24:01.597Z,19.80
2018-07-23T14:26:29.839Z,19.10
2018-07-23T14:28:58.074Z,18.20
2018-07-23T14:31:26.371Z,17.60
2018-07-23T14:33:54.587Z,17.00
2018-07-23T14:36:22.794Z,17.20
2018-07-23T14:38:51.081Z,16.70
2018-07-23T14:41:19.286Z,16.80
2018-07-23T14:43:47.778Z,16.90
2018-07-23T14:46:15.958Z,17.80
2018-07-23T14:48:44.153Z,18.00
2018-07-23T14:51:12.377Z,17.00
2018-07-23T14:53:40.775Z,17.10
2018-07-23T14:56:09.122Z,17.50
2018-07-23T14:58:37.346Z,17.30
2018-07-23T15:01:05.683Z,17.30
2018-07-23T15:03:33.909Z,17.30
2018-07-23T15:06:02.326Z,17.10
2018-07-23T15:08:30.565Z,17.80
2018-07-23T15:10:58.799Z,18.60
2018-07-23T15:13:27.100Z,19.40
2018-07-23T15:18:23.377Z,21.90
2018-07-23T15:20:51.619Z,22.40
2018-07-23T15:23:19.865Z,22.70
2018-07-23T15:25:48.237Z,23.10
2018-07-23T15:28:16.453Z,23.30
2018-07-23T15:33:12.718Z,25.30
2018-07-23T15:35:40.969Z,26.30
2018-07-23T15:38:09.246Z,26.10
2018-07-23T15:40:37.494Z,25.50
2018-07-23T15:43:05.738Z,25.50
2018-07-23T15:45:34.545Z,23.70
2018-07-23T15:48:02.678Z,22.00
2018-07-23T15:50:30.962Z,22.20
2018-07-23T15:52:59.246Z,21.90
2018-07-23T15:55:27.646Z,20.90
2018-07-23T15:57:56.433Z,20.50
2018-07-23T16:00:24.790Z,20.50
2018-07-23T16:02:53.056Z,20.90
2018-07-23T16:05:21.631Z,20.90
2018-07-23T16:07:49.849Z,20.80
2018-07-23T16:10:18.167Z,21.10
2018-07-23T16:12:46.524Z,21.10
2018-07-23T16:15:14.866Z,21.40
2018-07-23T16:17:43.134Z,21.40
2018-07-23T16:20:11.586Z,21.40
2018-07-23T16:22:39.886Z,22.70
2018-07-23T16:25:08.590Z,23.20
2018-07-23T16:27:36.945Z,24.20
2018-07-23T16:30:06.018Z,24.20
2018-07-23T16:32:34.667Z,24.10
2018-07-23T16:35:03.221Z,24.40
2018-07-23T16:37:31.727Z,25.00
2018-07-23T16:40:00.198Z,25.80
2018-07-23T16:42:28.416Z,25.60
2018-07-23T16:44:57.305Z,26.30
2018-07-23T16:47:25.586Z,25.90
2018-07-23T16:49:56.062Z,26.00
2018-07-23T16:52:24.648Z,25.80
2018-07-23T16:54:52.842Z,26.20
2018-07-23T16:57:21.072Z,26.40
2018-07-23T16:59:49.875Z,26.90
2018-07-23T17:02:18.238Z,27.30
2018-07-23T17:04:46.456Z,26.30
2018-07-23T17:07:14.837Z,26.30
2018-07-23T17:09:43.316Z,26.50
2018-07-23T17:12:11.657Z,26.90
2018-07-23T17:14:40.106Z,26.50
2018-07-23T17:17:08.383Z,26.40
2018-07-23T17:19:36.613Z,26.10
2018-07-23T17:22:04.882Z,26.00
2018-07-23T17:24:33.259Z,26.20
2018-07-23T17:27:01.510Z,25.70
2018-07-23T17:29:29.738Z,25.80
2018-07-23T17:31:58.001Z,25.10
2018-07-23T17:34:26.793Z,25.20
2018-07-23T17:36:55.093Z,25.80
2018-07-23T17:39:23.353Z,26.00
2018-07-23T17:41:51.610Z,26.70
2018-07-23T17:44:19.839Z,26.70
2018-07-23T17:46:48.182Z,26.70
2018-07-23T17:49:16.426Z,26.80
2018-07-23T17:51:44.619Z,26.70
2018-07-23T17:54:12.810Z,27.30
2018-07-23T17:56:41.099Z,27.30
2018-07-23T17:59:09.443Z,27.90
2018-07-23T18:01:37.762Z,27.30
2018-07-23T18:04:05.960Z,26.70
2018-07-23T18:06:34.372Z,27.30
2018-07-23T18:09:02.738Z,26.70
2018-07-23T18:11:30.941Z,26.70
2018-07-23T18:16:27.456Z,26.90
2018-07-23T18:18:55.770Z,27.30
2018-07-23T18:21:24.351Z,27.20
2018-07-23T18:23:52.566Z,27.50
2018-07-23T18:26:20.825Z,27.80
2018-07-23T18:28:49.159Z,28.10
2018-07-23T18:31:17.494Z,28.40
2018-07-23T18:33:45.705Z,27.40
2018-07-23T18:36:13.941Z,28.20
2018-07-23T18:38:42.421Z,29.10
2018-07-23T18:41:10.628Z,28.80
2018-07-23T18:43:38.832Z,29.10
2018-07-23T18:46:07.121Z,29.70
2018-07-23T18:49:45.181Z,30.40
2018-07-23T18:52:13.952Z,30.00
2018-07-23T18:54:43.248Z,30.20
2018-07-23T18:57:11.598Z,31.10
2018-07-23T18:59:39.969Z,31.10
2018-07-23T19:02:09.480Z,32.50
2018-07-23T19:04:38.069Z,33.10
2018-07-23T19:07:06.997Z,33.00
2018-07-23T19:09:35.568Z,32.50
2018-07-23T19:12:04.265Z,32.60
2018-07-23T19:14:33.266Z,33.40
2018-07-23T19:17:02.841Z,34.50
2018-07-23T19:19:31.242Z,34.00
2018-07-23T19:22:00.180Z,33.60
2018-07-23T19:24:28.489Z,35.30
2018-07-23T19:29:25.149Z,35.00
2018-07-23T19:31:53.926Z,34.60
2018-07-23T19:34:22.144Z,35.70
2018-07-23T19:36:50.399Z,36.50
2018-07-23T19:39:19.837Z,36.30
2018-07-23T19:41:48.109Z,36.00
2018-07-23T19:44:16.428Z,35.80
2018-07-23T19:46:44.733Z,36.50
2018-07-23T19:49:12.964Z,37.00
2018-07-23T19:51:41.393Z,37.30
2018-07-23T19:54:10.039Z,37.70
2018-07-23T19:56:38.256Z,37.80
2018-07-23T19:59:06.684Z,38.40
2018-07-23T20:01:35.077Z,38.80
2018-07-23T20:04:03.289Z,39.30
2018-07-23T20:06:32.279Z,39.10
2018-07-23T20:09:01.857Z,37.40
2018-07-23T20:11:31.110Z,36.80
2018-07-23T20:13:59.572Z,37.80
2018-07-23T20:16:27.756Z,37.00
2018-07-23T20:18:56.402Z,37.60
2018-07-23T20:21:24.660Z,37.40
2018-07-23T20:23:52.897Z,37.20
2018-07-23T20:26:21.237Z,37.20
2018-07-23T20:28:50.318Z,37.70
2018-07-23T20:31:18.706Z,38.20
2018-07-23T20:33:47.108Z,38.70
2018-07-23T20:36:15.390Z,38.80
2018-07-23T20:38:43.680Z,39.40
2018-07-23T20:41:12.058Z,39.10
2018-07-23T20:46:08.578Z,39.60
2018-07-23T20:48:36.829Z,40.00
2018-07-23T20:51:05.057Z,39.90
2018-07-23T20:53:33.301Z,40.00
2018-07-23T20:56:01.509Z,40.40
2018-07-23T21:00:58.205Z,40.50
2018-07-23T21:03:26.995Z,41.00
2018-07-23T21:05:55.417Z,41.40
2018-07-23T21:08:23.628Z,42.20
2018-07-23T21:10:52.402Z,41.60
2018-07-23T21:13:20.634Z,41.50
2018-07-23T21:15:48.939Z,42.00
2018-07-23T21:18:18.042Z,41.90
2018-07-23T21:20:46.274Z,41.80
2018-07-23T21:23:14.501Z,42.00
2018-07-23T21:25:42.701Z,41.70
2018-07-23T21:28:11.177Z,42.50
2018-07-23T21:30:39.401Z,42.00
2018-07-23T21:33:07.638Z,43.10
2018-07-23T21:35:35.814Z,42.90
2018-07-23T21:38:04.117Z,43.00
2018-07-23T21:40:32.385Z,43.00
2018-07-23T21:43:00.673Z,43.10
2018-07-23T21:45:29.112Z,44.00
2018-07-23T21:47:57.322Z,43.50
2018-07-23T21:50:25.777Z,43.90
2018-07-23T21:52:54.001Z,42.20
2018-07-23T21:55:22.313Z,42.20
2018-07-23T21:57:50.657Z,42.80
2018-07-23T22:00:19.657Z,43.50
2018-07-23T22:02:48.493Z,43.70
2018-07-23T22:05:16.761Z,44.40
2018-07-23T22:07:45.053Z,44.70
2018-07-23T22:10:13.325Z,44.80
2018-07-23T22:12:41.677Z,45.40
2018-07-23T22:15:11.208Z,46.10
2018-07-23T22:17:39.634Z,45.10
2018-07-23T22:20:08.696Z,45.10
2018-07-23T22:22:36.893Z,45.30
2018-07-23T22:25:05.244Z,45.30
2018-07-23T22:27:33.546Z,45.10
2018-07-23T22:30:01.889Z,44.20
2018-07-23T22:32:30.066Z,43.90
2018-07-23T22:34:58.432Z,44.70
2018-07-23T22:37:27.001Z,45.80
2018-07-23T22:39:55.885Z,45.80
2018-07-23T22:42:24.327Z,45.90
2018-07-23T22:44:52.524Z,46.00
2018-07-23T22:47:20.834Z,46.50
2018-07-23T22:49:49.244Z,46.50
2018-07-23T22:52:17.565Z,46.00
2018-07-23T22:54:45.833Z,45.20
2018-07-23T22:57:14.056Z,45.30
2018-07-23T22:59:42.497Z,43.80
2018-07-23T23:02:10.874Z,44.40
2018-07-23T23:04:39.224Z,45.50
2018-07-23T23:07:07.526Z,45.10
2018-07-23T23:09:35.780Z,45.30
2018-07-23T23:12:04.641Z,46.10
2018-07-23T23:14:32.970Z,45.00
2018-07-23T23:17:01.320Z,45.20
2018-07-23T23:19:29.793Z,46.50
2018-07-23T23:21:58.038Z,45.70
2018-07-23T23:24:26.527Z,45.60
2018-07-23T23:26:55.877Z,46.00
2018-07-23T23:29:24.179Z,47.00
2018-07-23T23:31:52.394Z,46.90
2018-07-23T23:34:20.620Z,47.10
2018-07-23T23:36:49.503Z,46.80
2018-07-23T23:39:17.866Z,46.20
2018-07-23T23:41:46.085Z,46.50
2018-07-23T23:44:14.349Z,45.90
2018-07-23T23:46:42.946Z,46.80
2018-07-23T23:49:11.726Z,46.30
2018-07-23T23:51:40.008Z,46.00
2018-07-23T23:54:08.214Z,46.40
2018-07-23T23:56:36.546Z,47.00
2018-07-23T23:59:05.018Z,46.80
